Time,TemperatureF,DewpointF,PressureIn,WindDirection,WindDirectionDegrees,WindSpeedMPH,WindSpeedGustMPH,Humidity,HourlyPrecipIn,Conditions,Clouds,dailyrainin,SoftwareType,DateUTC
2013-06-14 00:01:00,63.5,47.0,29.90,NNE,22,2.6,6.1,55,0.00,CLR,,0.00,WeatherDisplay:10.37,2013-06-14 04:01:00,
2013-06-14 00:02:00,63.5,47.0,29.90,NNE,22,2.6,6.1,55,0.00,CLR,,0.00,WeatherDisplay:10.37,2013-06-14 04:02:00,
2013-06-14 00:04:00,63.5,47.0,29.90,NNE,22,2.6,6.1,55,0.00,CLR,,0.00,WeatherDisplay:10.37,2013-06-14 04:04:00,
2013-06-14 00:06:00,63.5,47.0,29.90,NNE,22,2.6,6.1,55,0.00,CLR,,0.00,WeatherDisplay:10.37,2013-06-14 04:06:00,
2013-06-14 00:11:00,63.0,46.5,29.90,NW,315,0.0,0.0,55,0.00,CLR,,0.00,WeatherDisplay:10.37,2013-06-14 04:11:00,
2013-06-14 00:16:00,63.0,46.5,29.90,NW,315,0.0,0.0,55,0.00,CLR,,0.00,WeatherDisplay:10.37,2013-06-14 04:16:00,
2013-06-14 00:22:00,63.0,46.5,29.91,NNW,337,0.0,0.0,55,0.00,CLR,,0.00,WeatherDisplay:10.37,2013-06-14 04:22:00,
2013-06-14 00:23:00,63.0,46.5,29.91,NNW,337,0.0,0.0,55,0.00,CLR,,0.00,WeatherDisplay:10.37,2013-06-14 04:23:00,
2013-06-14 00:28:00,62.4,46.0,29.91,NNW,337,0.0,0.0,55,0.00,CLR,,0.00,WeatherDisplay:10.37,2013-06-14 04:28:00,
2013-06-14 00:33:00,62.2,45.9,29.91,NNW,337,0.0,0.0,55,0.00,CLR,,0.00,WeatherDisplay:10.37,2013-06-14 04:33:00,
2013-06-14 00:38:00,62.1,45.7,29.91,NNW,337,0.0,0.0,55,0.00,CLR,,0.00,WeatherDisplay:10.37,2013-06-14 04:38:00,
2013-06-14 00:43:00,61.9,45.5,29.91,NNW,337,0.0,0.0,55,0.00,CLR,,0.00,WeatherDisplay:10.37,2013-06-14 04:43:00,
2013-06-14 00:48:00,61.5,45.2,29.91,NNW,337,0.0,0.0,55,0.00,CLR,,0.00,WeatherDisplay:10.37,2013-06-14 04:48:00,
2013-06-14 00:53:00,61.3,45.0,29.91,SW,225,0.0,0.0,55,0.00,CLR,,0.00,WeatherDisplay:10.37,2013-06-14 04:53:00,
2013-06-14 00:58:00,61.3,45.0,29.91,SW,225,0.0,0.0,55,0.00,CLR,,0.00,WeatherDisplay:10.37,2013-06-14 04:58:00,
2013-06-14 01:03:00,61.0,44.7,29.91,South,180,0.0,0.0,55,0.00,CLR,,0.00,WeatherDisplay:10.37,2013-06-14 05:03:00,
2013-06-14 01:08:00,61.0,44.7,29.91,South,180,0.0,0.0,55,0.00,CLR,,0.00,WeatherDisplay:10.37,2013-06-14 05:08:00,
2013-06-14 01:13:00,61.0,44.7,29.92,South,180,0.0,0.0,55,0.00,CLR,,0.00,WeatherDisplay:10.37,2013-06-14 05:13:00,
2013-06-14 01:18:00,60.4,44.2,29.91,South,180,0.0,0.0,55,0.00,CLR,,0.00,WeatherDisplay:10.37,2013-06-14 05:18:00,
2013-06-14 01:23:00,60.4,44.2,29.92,North,0,0.0,0.0,55,0.00,CLR,,0.00,WeatherDisplay:10.37,2013-06-14 05:23:00,
2013-06-14 01:28:00,60.6,44.4,29.93,West,270,0.0,0.0,55,0.00,CLR,,0.00,WeatherDisplay:10.37,2013-06-14 05:28:00,
2013-06-14 01:33:00,60.6,44.4,29.93,West,270,0.0,0.0,55,0.00,CLR,,0.00,WeatherDisplay:10.37,2013-06-14 05:33:00,
2013-06-14 01:38:00,60.8,44.5,29.93,West,270,0.0,0.0,55,0.00,CLR,,0.00,WeatherDisplay:10.37,2013-06-14 05:38:00,
2013-06-14 01:43:00,60.6,44.4,29.92,SSW,202,0.3,0.3,55,0.00,CLR,,0.00,WeatherDisplay:10.37,2013-06-14 05:43:00,
2013-06-14 01:48:00,60.6,44.4,29.92,SSW,202,0.3,0.3,55,0.00,CLR,,0.00,WeatherDisplay:10.37,2013-06-14 05:48:00,
2013-06-14 01:53:00,60.6,44.4,29.93,NNW,337,0.0,0.3,55,0.00,CLR,,0.00,WeatherDisplay:10.37,2013-06-14 05:53:00,
2013-06-14 01:58:00,60.6,44.4,29.93,NNW,337,0.0,0.3,55,0.00,CLR,,0.00,WeatherDisplay:10.37,2013-06-14 05:58:00,
2013-06-14 02:03:00,60.6,44.4,29.92,NE,45,0.0,0.3,55,0.00,CLR,,0.00,WeatherDisplay:10.37,2013-06-14 06:03:00,
2013-06-14 02:08:00,60.8,44.5,29.92,NE,45,1.7,1.7,55,0.00,CLR,,0.00,WeatherDisplay:10.37,2013-06-14 06:08:00,
2013-06-14 02:13:00,60.8,44.5,29.93,WNW,292,1.7,1.7,55,0.00,CLR,,0.00,WeatherDisplay:10.37,2013-06-14 06:13:00,
2013-06-14 02:18:00,60.8,44.5,29.93,WNW,292,1.7,1.7,55,0.00,CLR,,0.00,WeatherDisplay:10.37,2013-06-14 06:18:00,
2013-06-14 02:23:00,61.0,44.7,29.93,WNW,292,0.0,1.7,55,0.00,CLR,,0.00,WeatherDisplay:10.37,2013-06-14 06:23:00,
2013-06-14 02:28:00,61.0,44.7,29.93,West,270,0.0,1.7,55,0.00,CLR,,0.00,WeatherDisplay:10.37,2013-06-14 06:28:00,
2013-06-14 02:33:00,61.0,44.7,29.93,West,270,1.0,1.7,55,0.00,CLR,,0.00,WeatherDisplay:10.37,2013-06-14 06:33:00,
2013-06-14 02:38:00,60.8,44.5,29.93,West,270,3.1,3.5,55,0.00,CLR,,0.00,WeatherDisplay:10.37,2013-06-14 06:38:00,
2013-06-14 02:43:00,60.6,44.4,29.88,North,0,1.3,3.5,55,0.00,CLR,,0.00,WeatherDisplay:10.37,2013-06-14 06:43:00,
2013-06-14 02:48:00,60.6,44.4,29.88,North,0,1.3,3.5,55,0.00,CLR,,0.00,WeatherDisplay:10.37,2013-06-14 06:48:00,
2013-06-14 02:53:00,60.4,44.2,29.88,NE,45,0.0,3.5,55,0.00,CLR,,0.00,WeatherDisplay:10.37,2013-06-14 06:53:00,
2013-06-14 02:58:00,60.3,44.0,29.88,NE,45,0.0,3.5,55,0.00,CLR,,0.00,WeatherDisplay:10.37,2013-06-14 06:58:00,
2013-06-14 03:03:00,60.3,44.0,29.88,NE,45,1.3,3.5,55,0.00,CLR,,0.00,WeatherDisplay:10.37,2013-06-14 07:03:00,
2013-06-14 03:08:00,60.3,44.0,29.88,NE,45,1.3,3.5,55,0.00,CLR,,0.00,WeatherDisplay:10.37,2013-06-14 07:08:00,
2013-06-14 03:13:00,60.3,44.0,29.89,NE,45,1.3,3.5,55,0.00,CLR,,0.00,WeatherDisplay:10.37,2013-06-14 07:13:00,
2013-06-14 03:18:00,60.3,44.0,29.89,NE,45,1.3,3.5,55,0.00,CLR,,0.00,WeatherDisplay:10.37,2013-06-14 07:18:00,
2013-06-14 03:23:00,59.7,43.5,29.89,NNW,337,1.7,3.5,55,0.00,CLR,,0.00,WeatherDisplay:10.37,2013-06-14 07:23:00,
2013-06-14 03:28:00,59.7,43.5,29.89,WNW,292,0.3,3.5,55,0.00,CLR,,0.00,WeatherDisplay:10.37,2013-06-14 07:28:00,
2013-06-14 03:33:00,59.5,43.3,29.88,NE,45,0.7,3.5,55,0.00,CLR,,0.00,WeatherDisplay:10.37,2013-06-14 07:33:00,
2013-06-14 03:38:00,59.5,43.3,29.89,NE,45,0.7,3.5,55,0.00,CLR,,0.00,WeatherDisplay:10.37,2013-06-14 07:38:00,
2013-06-14 03:43:00,59.5,43.3,29.89,North,0,2.6,3.5,55,0.00,CLR,,0.00,WeatherDisplay:10.37,2013-06-14 07:43:00,
2013-06-14 03:48:00,59.4,43.2,29.89,North,0,1.0,3.5,55,0.00,CLR,,0.00,WeatherDisplay:10.37,2013-06-14 07:48:00,
2013-06-14 03:53:00,59.2,43.0,29.90,North,0,0.7,3.5,55,0.00,CLR,,0.00,WeatherDisplay:10.37,2013-06-14 07:53:00,
2013-06-14 03:58:00,59.2,43.0,29.90,North,0,0.7,3.5,55,0.00,CLR,,0.00,WeatherDisplay:10.37,2013-06-14 07:58:00,
2013-06-14 04:03:00,59.2,43.0,29.89,North,0,0.7,3.5,55,0.00,CLR,,0.00,WeatherDisplay:10.37,2013-06-14 08:03:00,
2013-06-14 04:08:00,58.8,42.7,29.90,North,0,0.0,3.5,55,0.00,CLR,,0.00,WeatherDisplay:10.37,2013-06-14 08:08:00,
2013-06-14 04:13:00,58.8,42.7,29.89,NNE,22,1.7,3.5,55,0.00,CLR,,0.00,WeatherDisplay:10.37,2013-06-14 08:13:00,
2013-06-14 04:18:00,58.8,42.7,29.89,NNE,22,1.7,1.7,55,0.00,CLR,,0.00,WeatherDisplay:10.37,2013-06-14 08:18:00,
2013-06-14 04:23:00,58.8,42.7,29.90,NNE,22,1.7,1.7,55,0.00,CLR,,0.00,WeatherDisplay:10.37,2013-06-14 08:23:00,
2013-06-14 04:28:00,58.3,42.2,29.90,NNE,22,0.0,1.7,55,0.00,CLR,,0.00,WeatherDisplay:10.37,2013-06-14 08:28:00,
2013-06-14 04:33:00,58.1,42.0,29.91,West,270,1.3,1.7,55,0.00,CLR,,0.00,WeatherDisplay:10.37,2013-06-14 08:33:00,
2013-06-14 04:38:00,58.1,42.0,29.91,West,270,1.3,1.7,55,0.00,CLR,,0.00,WeatherDisplay:10.37,2013-06-14 08:38:00,
2013-06-14 04:43:00,57.9,41.8,29.91,SSW,202,0.7,1.7,55,0.00,CLR,,0.00,WeatherDisplay:10.37,2013-06-14 08:43:00,
2013-06-14 04:48:00,57.9,41.8,29.91,SSW,202,0.7,1.7,55,0.00,CLR,,0.00,WeatherDisplay:10.37,2013-06-14 08:48:00,
2013-06-14 04:53:00,57.9,41.8,29.92,SSW,202,0.7,1.7,55,0.00,CLR,,0.00,WeatherDisplay:10.37,2013-06-14 08:53:00,
2013-06-14 04:58:00,57.9,41.8,29.91,SSW,202,0.7,1.7,55,0.00,CLR,,0.00,WeatherDisplay:10.37,2013-06-14 08:58:00,
2013-06-14 05:03:00,57.6,41.5,29.92,SSW,202,0.0,1.7,55,0.00,CLR,,0.00,WeatherDisplay:10.37,2013-06-14 09:03:00,
2013-06-14 05:08:00,57.4,41.3,29.92,North,0,0.0,1.7,55,0.00,CLR,,0.00,WeatherDisplay:10.37,2013-06-14 09:08:00,
2013-06-14 05:13:00,57.4,41.3,29.92,North,0,0.0,1.7,55,0.00,CLR,,0.00,WeatherDisplay:10.37,2013-06-14 09:13:00,
2013-06-14 05:18:00,57.4,41.3,29.92,North,0,0.0,1.7,55,0.00,CLR,,0.00,WeatherDisplay:10.37,2013-06-14 09:18:00,
2013-06-14 05:23:00,57.0,41.0,29.93,North,0,0.0,1.2,55,0.00,CLR,,0.00,WeatherDisplay:10.37,2013-06-14 09:23:00,
2013-06-14 05:28:00,57.0,41.0,29.93,North,0,0.0,1.2,55,0.00,CLR,,0.00,WeatherDisplay:10.37,2013-06-14 09:28:00,
2013-06-14 05:33:00,57.0,41.0,29.93,NW,315,0.0,1.2,55,0.00,CLR,,0.00,WeatherDisplay:10.37,2013-06-14 09:33:00,
2013-06-14 05:38:00,56.7,40.7,29.93,NW,315,0.0,1.2,55,0.00,CLR,,0.00,WeatherDisplay:10.37,2013-06-14 09:38:00,
2013-06-14 05:43:00,56.5,40.5,29.93,NW,315,0.0,1.2,55,0.00,CLR,,0.00,WeatherDisplay:10.37,2013-06-14 09:43:00,
2013-06-14 05:48:00,56.5,40.5,29.95,NW,315,0.0,1.2,55,0.00,CLR,,0.00,WeatherDisplay:10.37,2013-06-14 09:48:00,
2013-06-14 05:53:00,56.5,40.5,29.93,NW,315,0.0,1.2,55,0.00,CLR,,0.00,WeatherDisplay:10.37,2013-06-14 09:53:00,
2013-06-14 05:58:00,56.5,40.5,29.95,NW,315,0.0,1.2,55,0.00,CLR,,0.00,WeatherDisplay:10.37,2013-06-14 09:58:00,
2013-06-14 06:03:00,56.5,40.5,29.95,NW,315,0.0,1.2,55,0.00,CLR,,0.00,WeatherDisplay:10.37,2013-06-14 10:03:00,
2013-06-14 06:08:00,56.3,40.3,29.95,NW,315,0.0,1.2,55,0.00,CLR,,0.00,WeatherDisplay:10.37,2013-06-14 10:08:00,
2013-06-14 06:13:00,56.3,40.3,29.95,NW,315,0.0,1.2,55,0.00,CLR,,0.00,WeatherDisplay:10.37,2013-06-14 10:13:00,
2013-06-14 06:18:00,56.3,40.3,29.95,NW,315,0.0,0.0,55,0.00,CLR,,0.00,WeatherDisplay:10.37,2013-06-14 10:18:00,
2013-06-14 06:23:00,56.3,40.3,29.95,NW,315,0.0,0.0,55,0.00,CLR,,0.00,WeatherDisplay:10.37,2013-06-14 10:23:00,
2013-06-14 06:28:00,55.8,39.8,29.95,NW,315,0.0,0.0,55,0.00,CLR,,0.00,WeatherDisplay:10.37,2013-06-14 10:28:00,
2013-06-14 06:33:00,55.8,39.8,29.95,NW,315,0.0,0.0,55,0.00,CLR,,0.00,WeatherDisplay:10.37,2013-06-14 10:33:00,
2013-06-14 06:38:00,55.8,39.8,29.95,NW,315,0.0,0.0,55,0.00,CLR,,0.00,WeatherDisplay:10.37,2013-06-14 10:38:00,
2013-06-14 06:43:00,55.8,39.8,29.95,NW,315,0.0,0.0,55,0.00,CLR,,0.00,WeatherDisplay:10.37,2013-06-14 10:43:00,
2013-06-14 06:48:00,55.8,39.8,29.96,NW,315,0.0,0.0,55,0.00,CLR,,0.00,WeatherDisplay:10.37,2013-06-14 10:48:00,
2013-06-14 06:53:00,56.1,40.2,29.96,NNW,337,0.0,1.2,55,0.00,CLR,,0.00,WeatherDisplay:10.37,2013-06-14 10:53:00,
2013-06-14 06:58:00,56.1,40.2,29.96,NNW,337,0.7,1.2,55,0.00,CLR,,0.00,WeatherDisplay:10.37,2013-06-14 10:58:00,
2013-06-14 07:03:00,56.1,40.2,29.98,NNW,337,0.7,1.2,55,0.00,CLR,,0.00,WeatherDisplay:10.37,2013-06-14 11:03:00,
2013-06-14 07:08:00,56.1,40.2,29.98,NNW,337,0.7,1.2,55,0.00,CLR,,0.00,WeatherDisplay:10.37,2013-06-14 11:08:00,
2013-06-14 07:13:00,56.1,40.2,29.98,ESE,112,0.7,1.2,55,0.00,CLR,,0.00,WeatherDisplay:10.37,2013-06-14 11:13:00,
2013-06-14 07:18:00,56.1,40.2,29.99,ESE,112,0.7,1.2,55,0.00,CLR,,0.00,WeatherDisplay:10.37,2013-06-14 11:18:00,
2013-06-14 07:23:00,56.1,40.2,29.99,ESE,112,0.7,1.2,55,0.00,CLR,,0.00,WeatherDisplay:10.37,2013-06-14 11:23:00,
2013-06-14 07:28:00,57.7,41.7,29.99,NNW,337,2.4,2.4,55,0.00,CLR,,0.00,WeatherDisplay:10.37,2013-06-14 11:28:00,
2013-06-14 07:33:00,57.9,41.8,29.99,WNW,292,1.0,2.8,55,0.00,CLR,,0.00,WeatherDisplay:10.37,2013-06-14 11:33:00,
2013-06-14 07:38:00,58.1,42.0,29.99,WNW,292,0.7,2.8,55,0.00,CLR,,0.00,WeatherDisplay:10.37,2013-06-14 11:38:00,
2013-06-14 07:43:00,58.1,42.0,29.99,WNW,292,0.7,2.8,55,0.00,CLR,,0.00,WeatherDisplay:10.37,2013-06-14 11:43:00,
2013-06-14 07:48:00,58.1,42.0,30.00,WNW,292,0.7,2.8,55,0.00,CLR,,0.00,WeatherDisplay:10.37,2013-06-14 11:48:00,
2013-06-14 07:53:00,59.0,42.8,30.01,WNW,292,0.7,2.8,55,0.00,CLR,,0.00,WeatherDisplay:10.37,2013-06-14 11:53:00,
2013-06-14 07:58:00,59.0,42.8,30.01,WNW,292,1.7,2.8,55,0.00,CLR,,0.00,WeatherDisplay:10.37,2013-06-14 11:58:00,
2013-06-14 08:03:00,59.0,42.8,30.02,NNE,22,1.7,2.8,55,0.00,CLR,,0.00,WeatherDisplay:10.37,2013-06-14 12:03:00,
2013-06-14 08:08:00,59.0,42.8,30.01,NNE,22,1.7,2.8,55,0.00,CLR,,0.00,WeatherDisplay:10.37,2013-06-14 12:08:00,
2013-06-14 08:13:00,59.0,42.8,30.01,NNE,22,1.7,2.8,55,0.00,CLR,,0.00,WeatherDisplay:10.37,2013-06-14 12:13:00,
2013-06-14 08:18:00,59.0,42.8,30.01,NNE,22,1.7,2.8,55,0.00,CLR,,0.00,WeatherDisplay:10.37,2013-06-14 12:18:00,
2013-06-14 08:23:00,59.0,42.8,30.01,NNE,22,5.9,5.9,55,0.00,CLR,,0.00,WeatherDisplay:10.37,2013-06-14 12:23:00,
2013-06-14 08:28:00,59.0,42.8,30.01,NNE,22,5.9,5.9,55,0.00,CLR,,0.00,WeatherDisplay:10.37,2013-06-14 12:28:00,
2013-06-14 08:33:00,59.0,42.8,30.01,NNE,22,5.9,5.9,55,0.00,CLR,,0.00,WeatherDisplay:10.37,2013-06-14 12:33:00,
2013-06-14 08:38:00,59.0,42.8,30.01,NNE,22,5.9,5.9,55,0.00,CLR,,0.00,WeatherDisplay:10.37,2013-06-14 12:38:00,
2013-06-14 08:43:00,59.0,42.8,30.02,NNE,22,5.9,5.9,55,0.00,CLR,,0.00,WeatherDisplay:10.37,2013-06-14 12:43:00,
2013-06-14 08:48:00,61.2,44.9,30.02,NNW,337,4.5,6.9,55,0.00,CLR,,0.00,WeatherDisplay:10.37,2013-06-14 12:48:00,
2013-06-14 08:53:00,62.2,45.9,30.02,NE,45,3.6,6.9,55,0.00,CLR,,0.00,WeatherDisplay:10.37,2013-06-14 12:53:00,
2013-06-14 08:58:00,62.2,45.9,30.03,NE,45,3.6,6.9,55,0.00,CLR,,0.00,WeatherDisplay:10.37,2013-06-14 12:58:00,
2013-06-14 09:03:00,62.2,45.9,30.04,NE,45,3.6,6.9,55,0.00,CLR,,0.00,WeatherDisplay:10.37,2013-06-14 13:03:00,
2013-06-14 09:08:00,62.2,45.9,30.03,NE,45,3.6,6.9,55,0.00,CLR,,0.00,WeatherDisplay:10.37,2013-06-14 13:08:00,
2013-06-14 09:13:00,65.3,48.7,30.04,NE,45,3.3,3.5,55,0.00,CLR,,0.00,WeatherDisplay:10.37,2013-06-14 13:13:00,
2013-06-14 09:18:00,65.8,49.2,30.04,NE,45,3.3,3.5,55,0.00,CLR,,0.00,WeatherDisplay:10.37,2013-06-14 13:18:00,
2013-06-14 09:23:00,66.4,49.7,30.05,NE,45,0.3,4.7,55,0.00,CLR,,0.00,WeatherDisplay:10.37,2013-06-14 13:23:00,
2013-06-14 09:28:00,66.4,49.7,30.06,NE,45,0.3,4.7,55,0.00,CLR,,0.00,WeatherDisplay:10.37,2013-06-14 13:28:00,
2013-06-14 09:33:00,66.4,49.7,30.06,NE,45,0.3,4.7,55,0.00,CLR,,0.00,WeatherDisplay:10.37,2013-06-14 13:33:00,
2013-06-14 09:38:00,68.2,51.4,30.06,ENE,67,1.7,5.1,55,0.00,CLR,,0.00,WeatherDisplay:10.37,2013-06-14 13:38:00,
2013-06-14 09:43:00,68.2,51.4,30.00,WNW,292,2.6,5.1,55,0.00,CLR,,0.00,WeatherDisplay:10.37,2013-06-14 13:43:00,
2013-06-14 09:48:00,68.2,51.4,30.06,ENE,67,2.6,5.1,55,0.00,CLR,,0.00,WeatherDisplay:10.37,2013-06-14 13:48:00,
2013-06-14 09:53:00,69.1,52.2,30.01,ENE,67,1.7,5.1,55,0.00,CLR,,0.00,WeatherDisplay:10.37,2013-06-14 13:53:00,
2013-06-14 09:58:00,69.1,52.2,30.07,NNE,22,1.7,5.1,55,0.00,CLR,,0.00,WeatherDisplay:10.37,2013-06-14 13:58:00,
2013-06-14 10:03:00,69.1,52.2,30.00,NNE,22,1.7,5.1,55,0.00,CLR,,0.00,WeatherDisplay:10.37,2013-06-14 14:03:00,
2013-06-14 10:08:00,69.1,52.2,30.01,NNW,337,1.7,5.1,55,0.00,CLR,,0.00,WeatherDisplay:10.37,2013-06-14 14:08:00,
2013-06-14 10:13:00,71.2,54.2,30.01,ENE,67,0.7,3.5,55,0.00,CLR,,0.00,WeatherDisplay:10.37,2013-06-14 14:13:00,
2013-06-14 10:18:00,71.2,54.2,30.01,ENE,67,2.8,3.5,55,0.00,CLR,,0.00,WeatherDisplay:10.37,2013-06-14 14:18:00,
2013-06-14 10:23:00,71.2,54.2,30.00,ENE,67,2.8,3.5,55,0.00,CLR,,0.00,WeatherDisplay:10.37,2013-06-14 14:23:00,
2013-06-14 10:28:00,71.2,54.2,30.00,ENE,67,2.8,3.5,55,0.00,CLR,,0.00,WeatherDisplay:10.37,2013-06-14 14:28:00,
2013-06-14 10:33:00,72.1,55.1,30.00,NNE,22,0.0,4.0,55,0.00,CLR,,0.00,WeatherDisplay:10.37,2013-06-14 14:33:00,
2013-06-14 10:38:00,72.5,55.4,30.07,NNE,22,2.8,4.0,55,0.00,CLR,,0.00,WeatherDisplay:10.37,2013-06-14 14:38:00,
2013-06-14 10:43:00,72.5,55.4,30.06,North,0,2.8,4.0,55,0.00,CLR,,0.00,WeatherDisplay:10.37,2013-06-14 14:43:00,
2013-06-14 10:48:00,72.7,55.6,30.00,North,0,3.3,4.0,55,0.00,CLR,,0.00,WeatherDisplay:10.37,2013-06-14 14:48:00,
2013-06-14 10:53:00,72.7,55.6,30.06,NNE,22,3.3,4.0,55,0.00,CLR,,0.00,WeatherDisplay:10.37,2013-06-14 14:53:00,
2013-06-14 10:58:00,72.7,55.6,30.07,NE,45,3.3,4.0,55,0.00,CLR,,0.00,WeatherDisplay:10.37,2013-06-14 14:58:00,
2013-06-14 11:03:00,72.7,55.6,30.01,NE,45,3.3,4.0,55,0.00,CLR,,0.00,WeatherDisplay:10.37,2013-06-14 15:03:00,
2013-06-14 11:08:00,72.7,55.6,30.07,NE,45,3.3,4.0,55,0.00,CLR,,0.00,WeatherDisplay:10.37,2013-06-14 15:08:00,
2013-06-14 11:13:00,74.7,57.4,30.06,NE,45,1.0,4.0,55,0.00,CLR,,0.00,WeatherDisplay:10.37,2013-06-14 15:13:00,
2013-06-14 11:18:00,75.6,58.3,30.06,NE,45,1.0,1.2,55,0.00,CLR,,0.00,WeatherDisplay:10.37,2013-06-14 15:18:00,
2013-06-14 11:23:00,75.6,58.3,30.06,NE,45,1.0,1.2,55,0.00,CLR,,0.00,WeatherDisplay:10.37,2013-06-14 15:23:00,
2013-06-14 11:28:00,75.9,58.6,30.06,NE,45,2.8,3.8,55,0.00,CLR,,0.00,WeatherDisplay:10.37,2013-06-14 15:28:00,
2013-06-14 11:33:00,75.9,58.6,30.06,NE,45,2.8,3.8,55,0.00,CLR,,0.00,WeatherDisplay:10.37,2013-06-14 15:33:00,
2013-06-14 11:38:00,76.5,59.1,30.07,SSE,157,4.3,4.3,55,0.00,CLR,,0.00,WeatherDisplay:10.37,2013-06-14 15:38:00,
2013-06-14 11:43:00,76.5,59.1,30.06,SSE,157,4.3,4.6,55,0.00,CLR,,0.00,WeatherDisplay:10.37,2013-06-14 15:43:00,
2013-06-14 11:48:00,76.5,59.1,30.06,SSE,157,4.3,4.6,55,0.00,CLR,,0.00,WeatherDisplay:10.37,2013-06-14 15:48:00,
2013-06-14 11:53:00,76.5,59.1,30.06,NNW,337,4.3,4.6,55,0.00,CLR,,0.00,WeatherDisplay:10.37,2013-06-14 15:53:00,
2013-06-14 11:58:00,76.5,59.1,30.05,WNW,292,4.3,4.6,55,0.00,CLR,,0.00,WeatherDisplay:10.37,2013-06-14 15:58:00,
2013-06-14 12:03:00,76.3,58.9,30.06,NNE,22,2.0,4.6,55,0.00,CLR,,0.00,WeatherDisplay:10.37,2013-06-14 16:03:00,
2013-06-14 12:08:00,76.3,58.9,30.06,NNE,22,2.0,4.6,55,0.00,CLR,,0.00,WeatherDisplay:10.37,2013-06-14 16:08:00,
2013-06-14 12:13:00,76.3,58.9,30.05,NNE,22,2.0,4.6,55,0.00,CLR,,0.00,WeatherDisplay:10.37,2013-06-14 16:13:00,
2013-06-14 12:18:00,76.8,59.4,30.06,NNE,22,1.0,2.3,55,0.00,CLR,,0.00,WeatherDisplay:10.37,2013-06-14 16:18:00,
2013-06-14 12:23:00,76.8,59.4,30.06,NNE,22,3.1,3.5,55,0.00,CLR,,0.00,WeatherDisplay:10.37,2013-06-14 16:23:00,
2013-06-14 12:28:00,76.8,59.4,30.06,NNE,22,3.1,3.5,55,0.00,CLR,,0.00,WeatherDisplay:10.37,2013-06-14 16:28:00,
2013-06-14 12:33:00,76.8,59.4,30.06,NNE,22,3.1,3.5,55,0.00,CLR,,0.00,WeatherDisplay:10.37,2013-06-14 16:33:00,
2013-06-14 12:38:00,77.2,59.8,30.06,NNE,22,1.0,3.6,55,0.00,CLR,,0.00,WeatherDisplay:10.37,2013-06-14 16:38:00,
2013-06-14 12:43:00,77.2,59.8,30.05,NNE,22,1.0,3.6,55,0.00,CLR,,0.00,WeatherDisplay:10.37,2013-06-14 16:43:00,
2013-06-14 12:48:00,78.3,60.8,30.06,NNE,22,1.0,3.6,55,0.00,CLR,,0.00,WeatherDisplay:10.37,2013-06-14 16:48:00,
2013-06-14 12:53:00,77.9,60.4,30.05,NNE,22,5.1,5.1,55,0.00,CLR,,0.00,WeatherDisplay:10.37,2013-06-14 16:53:00,
2013-06-14 12:58:00,78.3,60.8,30.05,NNE,22,3.1,5.8,55,0.00,CLR,,0.00,WeatherDisplay:10.37,2013-06-14 16:58:00,
2013-06-14 13:03:00,78.3,60.8,30.04,NNW,337,3.1,5.8,55,0.00,CLR,,0.00,WeatherDisplay:10.37,2013-06-14 17:03:00,
2013-06-14 13:08:00,78.3,60.8,30.04,NE,45,1.3,5.8,55,0.00,CLR,,0.00,WeatherDisplay:10.37,2013-06-14 17:08:00,
2013-06-14 13:13:00,78.3,60.8,30.04,NE,45,1.3,5.8,55,0.00,CLR,,0.00,WeatherDisplay:10.37,2013-06-14 17:13:00,
2013-06-14 13:18:00,78.3,60.8,30.04,NE,45,1.3,5.8,55,0.00,CLR,,0.00,WeatherDisplay:10.37,2013-06-14 17:18:00,
2013-06-14 13:23:00,78.6,61.1,30.04,NE,45,0.7,3.5,55,0.00,CLR,,0.00,WeatherDisplay:10.37,2013-06-14 17:23:00,
2013-06-14 13:28:00,78.6,61.1,30.03,NE,45,0.7,3.5,55,0.00,CLR,,0.00,WeatherDisplay:10.37,2013-06-14 17:28:00,
2013-06-14 13:33:00,79.5,61.9,30.03,NE,45,4.5,4.6,55,0.00,CLR,,0.00,WeatherDisplay:10.37,2013-06-14 17:33:00,
2013-06-14 13:38:00,79.5,61.4,30.03,North,0,4.5,4.6,54,0.00,CLR,,0.00,WeatherDisplay:10.37,2013-06-14 17:38:00,
2013-06-14 13:43:00,79.5,61.4,30.02,North,0,4.5,4.6,54,0.00,CLR,,0.00,WeatherDisplay:10.37,2013-06-14 17:43:00,
2013-06-14 13:48:00,79.5,61.4,30.02,NE,45,4.5,4.6,54,0.00,CLR,,0.00,WeatherDisplay:10.37,2013-06-14 17:48:00,
2013-06-14 13:53:00,79.5,61.4,30.02,NE,45,4.5,4.6,54,0.00,CLR,,0.00,WeatherDisplay:10.37,2013-06-14 17:53:00,
2013-06-14 13:58:00,79.5,61.4,30.01,NE,45,1.7,5.8,54,0.00,CLR,,0.00,WeatherDisplay:10.37,2013-06-14 17:58:00,
2013-06-14 14:03:00,79.5,61.4,30.01,SSW,202,1.7,5.8,54,0.00,CLR,,0.00,WeatherDisplay:10.37,2013-06-14 18:03:00,
2013-06-14 14:09:00,79.5,61.4,30.01,SSW,202,1.7,5.8,54,0.00,CLR,,0.00,WeatherDisplay:10.37,2013-06-14 18:09:00,
2013-06-14 14:14:00,79.5,61.4,30.01,SSW,202,1.7,5.8,54,0.00,CLR,,0.00,WeatherDisplay:10.37,2013-06-14 18:14:00,
2013-06-14 14:19:00,79.0,60.9,30.01,SSW,202,1.3,5.8,54,0.00,CLR,,0.00,WeatherDisplay:10.37,2013-06-14 18:19:00,
2013-06-14 14:24:00,79.3,61.2,30.01,SSW,202,4.5,4.6,54,0.00,CLR,,0.00,WeatherDisplay:10.37,2013-06-14 18:24:00,
2013-06-14 14:29:00,79.3,61.2,30.00,SSW,202,4.5,4.6,54,0.00,CLR,,0.00,WeatherDisplay:10.37,2013-06-14 18:29:00,
2013-06-14 14:34:00,79.2,61.6,30.00,SSW,202,1.7,4.6,55,0.00,CLR,,0.00,WeatherDisplay:10.37,2013-06-14 18:34:00,
2013-06-14 14:39:00,79.2,61.1,30.00,SSW,202,1.7,4.6,54,0.00,CLR,,0.00,WeatherDisplay:10.37,2013-06-14 18:39:00,
2013-06-14 14:44:00,79.2,61.6,29.99,SSW,202,1.7,4.6,55,0.00,CLR,,0.00,WeatherDisplay:10.37,2013-06-14 18:44:00,
2013-06-14 14:49:00,79.2,61.1,30.00,SSW,202,4.0,4.6,54,0.00,CLR,,0.00,WeatherDisplay:10.37,2013-06-14 18:49:00,
2013-06-14 14:54:00,79.2,61.1,30.00,SSW,202,4.0,4.6,54,0.00,CLR,,0.00,WeatherDisplay:10.37,2013-06-14 18:54:00,
2013-06-14 14:59:00,79.2,61.1,29.99,SSW,202,4.0,4.6,54,0.00,CLR,,0.00,WeatherDisplay:10.37,2013-06-14 18:59:00,
2013-06-14 15:04:00,79.2,61.1,29.99,NE,45,4.0,4.6,54,0.00,CLR,,0.00,WeatherDisplay:10.37,2013-06-14 19:04:00,
2013-06-14 15:09:00,79.2,61.6,29.99,NE,45,4.9,5.1,55,0.00,CLR,,0.00,WeatherDisplay:10.37,2013-06-14 19:09:00,
2013-06-14 15:14:00,79.3,61.8,29.99,NE,45,5.7,5.8,55,0.00,CLR,,0.00,WeatherDisplay:10.37,2013-06-14 19:14:00,
2013-06-14 15:19:00,78.8,61.3,29.99,NE,45,2.6,5.8,55,0.00,CLR,,0.00,WeatherDisplay:10.37,2013-06-14 19:19:00,
2013-06-14 15:24:00,78.8,60.7,29.99,NE,45,2.6,5.8,54,0.00,CLR,,0.00,WeatherDisplay:10.37,2013-06-14 19:24:00,
2013-06-14 15:29:00,78.8,60.7,29.98,NE,45,2.6,5.8,54,0.00,CLR,,0.00,WeatherDisplay:10.37,2013-06-14 19:29:00,
2013-06-14 15:34:00,77.7,59.7,29.98,NE,45,4.9,5.8,54,0.00,CLR,,0.00,WeatherDisplay:10.37,2013-06-14 19:34:00,
2013-06-14 15:39:00,78.1,60.1,29.98,NE,45,1.7,5.8,54,0.00,CLR,,0.00,WeatherDisplay:10.37,2013-06-14 19:39:00,
2013-06-14 15:44:00,78.1,60.1,29.98,North,0,1.3,5.8,54,0.00,CLR,,0.00,WeatherDisplay:10.37,2013-06-14 19:44:00,
2013-06-14 15:49:00,78.1,60.1,29.98,North,0,1.3,5.8,54,0.00,CLR,,0.00,WeatherDisplay:10.37,2013-06-14 19:49:00,
2013-06-14 15:54:00,77.7,59.7,29.98,NNW,337,1.7,5.8,54,0.00,CLR,,0.00,WeatherDisplay:10.37,2013-06-14 19:54:00,
2013-06-14 15:59:00,77.7,59.7,29.98,ESE,112,4.7,5.8,54,0.00,CLR,,0.00,WeatherDisplay:10.37,2013-06-14 19:59:00,
2013-06-14 16:04:00,77.7,59.7,29.96,ENE,67,5.7,5.8,54,0.00,CLR,,0.00,WeatherDisplay:10.37,2013-06-14 20:04:00,
2013-06-14 16:09:00,77.7,59.7,29.96,ENE,67,5.7,5.8,54,0.00,CLR,,0.00,WeatherDisplay:10.37,2013-06-14 20:09:00,
2013-06-14 16:14:00,76.5,58.6,29.96,ENE,67,5.7,5.8,54,0.00,CLR,,0.00,WeatherDisplay:10.37,2013-06-14 20:14:00,
2013-06-14 16:19:00,76.8,58.9,29.96,NE,45,2.4,5.8,54,0.00,CLR,,0.00,WeatherDisplay:10.37,2013-06-14 20:19:00,
2013-06-14 16:24:00,76.6,58.7,30.02,NE,45,3.3,5.8,54,0.00,CLR,,0.00,WeatherDisplay:10.37,2013-06-14 20:24:00,
2013-06-14 16:29:00,76.6,58.7,29.96,SW,225,0.7,5.8,54,0.00,CLR,,0.00,WeatherDisplay:10.37,2013-06-14 20:29:00,
2013-06-14 16:34:00,76.6,58.7,30.02,SW,225,0.7,5.8,54,0.00,CLR,,0.00,WeatherDisplay:10.37,2013-06-14 20:34:00,
2013-06-14 16:39:00,75.9,57.6,30.02,SW,225,4.0,5.8,53,0.00,CLR,,0.00,WeatherDisplay:10.37,2013-06-14 20:39:00,
2013-06-14 16:44:00,75.6,57.2,30.02,NNE,22,1.0,5.8,53,0.00,CLR,,0.00,WeatherDisplay:10.37,2013-06-14 20:44:00,
2013-06-14 16:49:00,75.0,56.7,30.02,North,0,4.5,5.8,53,0.00,CLR,,0.00,WeatherDisplay:10.37,2013-06-14 20:49:00,
2013-06-14 16:54:00,75.2,56.9,30.01,ENE,67,3.3,5.8,53,0.00,CLR,,0.00,WeatherDisplay:10.37,2013-06-14 20:54:00,
2013-06-14 16:59:00,74.7,56.4,30.02,North,0,1.7,5.8,53,0.00,CLR,,0.00,WeatherDisplay:10.37,2013-06-14 20:59:00,
2013-06-14 17:04:00,74.5,56.2,30.02,SSE,157,0.3,5.8,53,0.00,CLR,,0.00,WeatherDisplay:10.37,2013-06-14 21:04:00,
2013-06-14 17:09:00,74.8,56.6,30.02,ENE,67,3.6,5.8,53,0.00,CLR,,0.00,WeatherDisplay:10.37,2013-06-14 21:09:00,
2013-06-14 17:14:00,75.0,56.7,30.02,NNW,337,1.0,5.8,53,0.00,CLR,,0.00,WeatherDisplay:10.37,2013-06-14 21:14:00,
2013-06-14 17:19:00,74.7,56.4,30.02,NE,45,3.1,3.6,53,0.00,CLR,,0.00,WeatherDisplay:10.37,2013-06-14 21:19:00,
2013-06-14 17:24:00,74.1,55.9,30.02,West,270,1.7,3.6,53,0.00,CLR,,0.00,WeatherDisplay:10.37,2013-06-14 21:24:00,
2013-06-14 17:29:00,73.8,55.6,30.02,NE,45,3.1,3.6,53,0.00,CLR,,0.00,WeatherDisplay:10.37,2013-06-14 21:29:00,
2013-06-14 17:34:00,73.9,55.7,30.02,NE,45,3.1,4.6,53,0.00,CLR,,0.00,WeatherDisplay:10.37,2013-06-14 21:34:00,
2013-06-14 17:39:00,73.8,55.6,30.02,NW,315,2.6,4.6,53,0.00,CLR,,0.00,WeatherDisplay:10.37,2013-06-14 21:39:00,
2013-06-14 17:44:00,73.4,55.2,30.01,NNE,22,1.7,4.6,53,0.00,CLR,,0.00,WeatherDisplay:10.37,2013-06-14 21:44:00,
2013-06-14 17:49:00,73.4,55.2,30.01,ENE,67,4.3,4.6,53,0.00,CLR,,0.00,WeatherDisplay:10.37,2013-06-14 21:49:00,
2013-06-14 17:54:00,73.0,54.9,30.01,NE,45,5.7,5.8,53,0.00,CLR,,0.00,WeatherDisplay:10.37,2013-06-14 21:54:00,
2013-06-14 17:59:00,72.7,54.6,30.01,NNW,337,0.0,5.8,53,0.00,CLR,,0.00,WeatherDisplay:10.37,2013-06-14 21:59:00,
2013-06-14 18:04:00,72.7,54.6,30.01,ENE,67,2.4,5.8,53,0.00,CLR,,0.00,WeatherDisplay:10.37,2013-06-14 22:04:00,
2013-06-14 18:09:00,72.9,54.7,30.01,NNE,22,4.0,5.8,53,0.00,CLR,,0.00,WeatherDisplay:10.37,2013-06-14 22:09:00,
2013-06-14 18:14:00,72.3,54.2,30.00,NNE,22,4.0,5.8,53,0.00,CLR,,0.00,WeatherDisplay:10.37,2013-06-14 22:14:00,
2013-06-14 18:19:00,72.1,54.1,30.00,NE,45,0.3,4.0,53,0.00,CLR,,0.00,WeatherDisplay:10.37,2013-06-14 22:19:00,
2013-06-14 18:24:00,72.1,54.1,29.99,NE,45,0.3,4.0,53,0.00,CLR,,0.00,WeatherDisplay:10.37,2013-06-14 22:24:00,
2013-06-14 18:29:00,71.8,53.7,29.99,NNE,22,0.3,4.0,53,0.00,CLR,,0.00,WeatherDisplay:10.37,2013-06-14 22:29:00,
2013-06-14 18:34:00,71.4,53.4,30.00,ENE,67,2.0,4.0,53,0.00,CLR,,0.00,WeatherDisplay:10.37,2013-06-14 22:34:00,
2013-06-14 18:39:00,71.2,52.7,30.00,ENE,67,4.3,4.6,52,0.00,CLR,,0.00,WeatherDisplay:10.37,2013-06-14 22:39:00,
2013-06-14 18:44:00,71.2,53.2,29.99,SE,135,0.7,4.6,53,0.00,CLR,,0.00,WeatherDisplay:10.37,2013-06-14 22:44:00,
2013-06-14 18:49:00,70.9,52.9,29.99,WSW,247,0.0,4.6,53,0.00,CLR,,0.00,WeatherDisplay:10.37,2013-06-14 22:49:00,
2013-06-14 18:54:00,70.9,52.4,29.99,NE,45,1.7,4.6,52,0.00,CLR,,0.00,WeatherDisplay:10.37,2013-06-14 22:54:00,
2013-06-14 18:59:00,70.5,52.0,29.99,South,180,1.7,4.6,52,0.00,CLR,,0.00,WeatherDisplay:10.37,2013-06-14 22:59:00,
2013-06-14 19:04:00,70.5,52.6,29.99,East,90,2.0,4.6,53,0.00,CLR,,0.00,WeatherDisplay:10.37,2013-06-14 23:04:00,
2013-06-14 19:09:00,70.3,52.4,29.99,ESE,112,2.4,4.6,53,0.00,CLR,,0.00,WeatherDisplay:10.37,2013-06-14 23:09:00,
2013-06-14 19:14:00,70.2,52.2,29.99,NE,45,1.0,2.4,53,0.00,CLR,,0.00,WeatherDisplay:10.37,2013-06-14 23:14:00,
2013-06-14 19:19:00,70.0,52.1,29.99,NNE,22,1.3,3.5,53,0.00,CLR,,0.00,WeatherDisplay:10.37,2013-06-14 23:19:00,
2013-06-14 19:24:00,70.0,52.1,29.99,ESE,112,1.3,3.5,53,0.00,CLR,,0.00,WeatherDisplay:10.37,2013-06-14 23:24:00,
2013-06-14 19:29:00,69.8,51.9,29.99,North,0,5.9,5.9,53,0.00,CLR,,0.00,WeatherDisplay:10.37,2013-06-14 23:29:00,
2013-06-14 19:34:00,69.8,51.9,29.98,North,0,3.8,5.9,53,0.00,CLR,,0.00,WeatherDisplay:10.37,2013-06-14 23:34:00,
2013-06-14 19:39:00,69.4,51.6,29.98,NE,45,4.9,5.9,53,0.00,CLR,,0.00,WeatherDisplay:10.37,2013-06-14 23:39:00,
2013-06-14 19:44:00,69.3,51.4,29.98,NE,45,4.9,5.9,53,0.00,CLR,,0.00,WeatherDisplay:10.37,2013-06-14 23:44:00,
2013-06-14 19:49:00,69.3,51.4,29.99,ENE,67,2.0,5.9,53,0.00,CLR,,0.00,WeatherDisplay:10.37,2013-06-14 23:49:00,
2013-06-14 19:54:00,69.1,51.2,29.99,NW,315,0.0,5.9,53,0.00,CLR,,0.00,WeatherDisplay:10.37,2013-06-14 23:54:00,
2013-06-14 19:59:00,68.9,51.1,29.98,NE,45,1.3,5.9,53,0.00,CLR,,0.00,WeatherDisplay:10.37,2013-06-14 23:59:00,
2013-06-14 20:04:00,68.9,51.1,29.99,NE,45,0.0,5.9,53,0.00,CLR,,0.00,WeatherDisplay:10.37,2013-06-15 00:04:00,
2013-06-14 20:09:00,68.5,50.7,29.98,South,180,0.0,5.9,53,0.00,CLR,,0.00,WeatherDisplay:10.37,2013-06-15 00:09:00,
2013-06-14 20:14:00,68.4,50.6,29.98,NE,45,2.4,2.4,53,0.00,CLR,,0.00,WeatherDisplay:10.37,2013-06-15 00:14:00,
2013-06-14 20:19:00,68.4,50.6,29.96,NE,45,2.8,2.8,53,0.00,CLR,,0.00,WeatherDisplay:10.37,2013-06-15 00:19:00,
2013-06-14 20:24:00,68.4,50.6,29.98,NE,45,2.8,2.8,53,0.00,CLR,,0.00,WeatherDisplay:10.37,2013-06-15 00:24:00,
2013-06-14 20:29:00,67.6,49.9,29.98,South,180,0.0,2.8,53,0.00,CLR,,0.00,WeatherDisplay:10.37,2013-06-15 00:29:00,
2013-06-14 20:34:00,67.5,49.7,29.98,SSE,157,0.0,2.8,53,0.00,CLR,,0.00,WeatherDisplay:10.37,2013-06-15 00:34:00,
2013-06-14 20:39:00,66.9,49.2,29.98,SSE,157,0.0,2.8,53,0.00,CLR,,0.00,WeatherDisplay:10.37,2013-06-15 00:39:00,
2013-06-14 20:44:00,66.7,49.1,29.98,SSE,157,0.0,2.8,53,0.00,CLR,,0.00,WeatherDisplay:10.37,2013-06-15 00:44:00,
2013-06-14 20:49:00,66.2,48.6,29.98,SSE,157,0.0,2.8,53,0.00,CLR,,0.00,WeatherDisplay:10.37,2013-06-15 00:49:00,
2013-06-14 20:54:00,65.8,48.2,29.96,SSE,157,0.0,2.8,53,0.00,CLR,,0.00,WeatherDisplay:10.37,2013-06-15 00:54:00,
2013-06-14 20:59:00,65.5,47.9,29.96,SSE,157,0.0,2.8,53,0.00,CLR,,0.00,WeatherDisplay:10.37,2013-06-15 00:59:00,
2013-06-14 21:04:00,65.5,47.9,29.96,SSE,157,0.0,2.8,53,0.00,CLR,,0.00,WeatherDisplay:10.37,2013-06-15 01:04:00,
2013-06-14 21:09:00,64.8,47.2,29.98,SSE,157,0.0,2.8,53,0.00,CLR,,0.00,WeatherDisplay:10.37,2013-06-15 01:09:00,
2013-06-14 21:14:00,64.4,46.9,29.98,SSE,157,0.0,2.3,53,0.00,CLR,,0.00,WeatherDisplay:10.37,2013-06-15 01:14:00,
2013-06-14 21:19:00,64.0,46.6,29.98,SSE,157,0.0,0.0,53,0.00,CLR,,0.00,WeatherDisplay:10.37,2013-06-15 01:19:00,
2013-06-14 21:24:00,63.9,46.4,29.96,SSE,157,0.0,0.0,53,0.00,CLR,,0.00,WeatherDisplay:10.37,2013-06-15 01:24:00,
2013-06-14 21:29:00,63.7,46.2,29.96,SSE,157,0.0,0.0,53,0.00,CLR,,0.00,WeatherDisplay:10.37,2013-06-15 01:29:00,
2013-06-14 21:34:00,63.1,45.7,29.98,SSE,157,0.0,0.0,53,0.00,CLR,,0.00,WeatherDisplay:10.37,2013-06-15 01:34:00,
2013-06-14 21:39:00,63.0,45.6,29.98,SSE,157,0.0,0.0,53,0.00,CLR,,0.00,WeatherDisplay:10.37,2013-06-15 01:39:00,
2013-06-14 21:44:00,62.8,45.4,29.98,SSE,157,0.0,0.0,53,0.00,CLR,,0.00,WeatherDisplay:10.37,2013-06-15 01:44:00,
2013-06-14 21:49:00,62.4,45.5,29.98,SSE,157,0.0,0.0,54,0.00,CLR,,0.00,WeatherDisplay:10.37,2013-06-15 01:49:00,
2013-06-14 21:54:00,62.4,45.5,29.98,SSE,157,0.0,0.0,54,0.00,CLR,,0.00,WeatherDisplay:10.37,2013-06-15 01:54:00,
2013-06-14 21:59:00,61.5,44.7,29.98,SSE,157,0.0,0.0,54,0.00,CLR,,0.00,WeatherDisplay:10.37,2013-06-15 01:59:00,
2013-06-14 22:04:00,61.3,44.5,29.99,SSE,157,0.0,0.0,54,0.00,CLR,,0.00,WeatherDisplay:10.37,2013-06-15 02:04:00,
2013-06-14 22:09:00,61.3,44.5,29.99,SSE,157,0.0,0.0,54,0.00,CLR,,0.00,WeatherDisplay:10.37,2013-06-15 02:09:00,
2013-06-14 22:14:00,61.2,44.9,29.99,SSE,157,0.0,0.0,55,0.00,CLR,,0.00,WeatherDisplay:10.37,2013-06-15 02:14:00,
2013-06-14 22:19:00,60.8,44.5,29.99,SSE,157,0.0,0.0,55,0.00,CLR,,0.00,WeatherDisplay:10.37,2013-06-15 02:19:00,
2013-06-14 22:24:00,60.6,44.4,29.99,SSE,157,0.0,0.0,55,0.00,CLR,,0.00,WeatherDisplay:10.37,2013-06-15 02:24:00,
2013-06-14 22:29:00,60.3,44.0,29.99,SSE,157,0.0,0.0,55,0.00,CLR,,0.00,WeatherDisplay:10.37,2013-06-15 02:29:00,
2013-06-14 22:34:00,60.1,43.9,29.99,SSE,157,0.0,0.0,55,0.00,CLR,,0.00,WeatherDisplay:10.37,2013-06-15 02:34:00,
2013-06-14 22:39:00,60.1,43.9,29.99,SSE,157,0.0,0.0,55,0.00,CLR,,0.00,WeatherDisplay:10.37,2013-06-15 02:39:00,
2013-06-14 22:44:00,59.9,43.7,29.99,SSE,157,0.0,0.0,55,0.00,CLR,,0.00,WeatherDisplay:10.37,2013-06-15 02:44:00,
2013-06-14 22:49:00,59.9,43.7,29.99,SSE,157,0.0,0.0,55,0.00,CLR,,0.00,WeatherDisplay:10.37,2013-06-15 02:49:00,
2013-06-14 22:54:00,59.9,43.7,29.99,SSE,157,0.0,0.0,55,0.00,CLR,,0.00,WeatherDisplay:10.37,2013-06-15 02:54:00,
2013-06-14 22:59:00,59.4,42.7,29.99,ESE,112,0.0,0.0,54,0.00,CLR,,0.00,WeatherDisplay:10.37,2013-06-15 02:59:00,
2013-06-14 23:04:00,59.2,42.5,29.99,ESE,112,0.0,0.0,54,0.00,CLR,,0.00,WeatherDisplay:10.37,2013-06-15 03:04:00,
2013-06-14 23:09:00,59.0,42.4,29.99,ESE,112,0.0,0.0,54,0.00,CLR,,0.00,WeatherDisplay:10.37,2013-06-15 03:09:00,
2013-06-14 23:14:00,58.8,42.2,30.00,ESE,112,0.0,0.0,54,0.00,CLR,,0.00,WeatherDisplay:10.37,2013-06-15 03:14:00,
2013-06-14 23:19:00,58.5,42.3,30.00,ESE,112,0.0,0.0,55,0.00,CLR,,0.00,WeatherDisplay:10.37,2013-06-15 03:19:00,
2013-06-14 23:24:00,58.3,41.7,29.99,ESE,112,0.0,0.0,54,0.00,CLR,,0.00,WeatherDisplay:10.37,2013-06-15 03:24:00,
2013-06-14 23:29:00,58.1,41.5,30.00,ESE,112,0.0,0.0,54,0.00,CLR,,0.00,WeatherDisplay:10.37,2013-06-15 03:29:00,
2013-06-14 23:34:00,57.9,41.4,30.00,ESE,112,0.0,0.0,54,0.00,CLR,,0.00,WeatherDisplay:10.37,2013-06-15 03:34:00,
2013-06-14 23:39:00,57.7,41.7,30.00,ESE,112,0.0,0.0,55,0.00,CLR,,0.00,WeatherDisplay:10.37,2013-06-15 03:39:00,
2013-06-14 23:44:00,57.6,41.0,29.99,SW,225,0.0,0.0,54,0.00,CLR,,0.00,WeatherDisplay:10.37,2013-06-15 03:44:00,
2013-06-14 23:49:00,57.4,41.3,29.99,SW,225,0.0,0.0,55,0.00,CLR,,0.00,WeatherDisplay:10.37,2013-06-15 03:49:00,
2013-06-14 23:54:00,57.0,40.5,29.99,SW,225,0.0,0.0,54,0.00,CLR,,0.00,WeatherDisplay:10.37,2013-06-15 03:54:00,
2013-06-14 23:59:00,56.8,40.4,29.99,SSW,202,0.0,0.0,54,0.00,CLR,,0.00,WeatherDisplay:10.37,2013-06-15 03:59:00,